»·PEaware :: N362MA KBUR-KDVO

N362MA :: KBUR-KDVO

FLIGHT INFORMATION

Flight Status: Arrived
Operator: Privately registered:
United States
More flights under this callsign
Pilot: Tyler S. (27221)
Aircraft: SOCATA TBM-900
(TBM9)
More flights by this aircraft type
Origin: KBUR Bob Hope-Burbank
United States
Destination: KDVO Gnoss
United States
More flights between these airports :: More routes between these airports
Route: +
File this flight plan on PilotEdge
Remarks:
Altitude:
(Current/Filed)
16,500ft
Speed:
(Current/Filed)
0kts
Departed: 09-Jan-20 08:56 PM
Arrived: 09-Jan-20 10:35 PM
Distance/Time
Traveled:
312nm/1:38
Distance/Time
To Go:
Arrived

Flight Plot

Page will automatically refresh every two minutes.

Flight plan parsing failed; only flown route is shown


Map Options




Map Legend


Flown Route
Filed Route
Departure Airport
Arrival Airport
Navaid (VOR, NDB)
Fix

Horizontal Profiles

Position Reports

Time Latitude Longitude Heading Altitude Ground
Speed
09-Jan-20 20:37 34.199682 -118.359443 346 779ft 0kts
09-Jan-20 20:38 34.199682 -118.359443 346 779ft 0kts
09-Jan-20 20:39 34.199682 -118.359443 346 779ft 0kts
09-Jan-20 20:40 34.199682 -118.359443 346 779ft 0kts
09-Jan-20 20:41 34.199682 -118.359443 346 779ft 0kts
09-Jan-20 20:42 34.199682 -118.359443 346 779ft 0kts
09-Jan-20 20:43 34.199682 -118.359443 346 779ft 0kts
09-Jan-20 20:44 34.199682 -118.359443 346 779ft 0kts
09-Jan-20 20:45 34.199682 -118.359443 346 779ft 0kts
09-Jan-20 20:46 34.199682 -118.359443 346 779ft 0kts
09-Jan-20 20:47 34.199682 -118.359443 346 779ft 0kts
09-Jan-20 20:48 34.199787 -118.359303 115 779ft 4kts
09-Jan-20 20:49 34.201027 -118.358496 347 779ft 12kts
09-Jan-20 20:50 34.204384 -118.359423 346 779ft 8kts
09-Jan-20 20:51 34.208231 -118.360480 346 779ft 16kts
09-Jan-20 20:52 34.211925 -118.361370 32 779ft 0kts
09-Jan-20 20:54 34.211925 -118.361370 32 779ft 0kts
09-Jan-20 20:55 34.211470 -118.360246 166 779ft 33kts
09-Jan-20 20:56 34.182828 -118.349568 117 1658ft 130kts
09-Jan-20 20:57 34.203329 -118.328906 331 3093ft 139kts
09-Jan-20 20:58 34.233797 -118.360983 320 4594ft 151kts
09-Jan-20 20:59 34.263935 -118.394704 320 6718ft 147kts
09-Jan-20 21:00 34.293403 -118.429335 320 8714ft 150kts
09-Jan-20 21:01 34.322087 -118.463803 321 10788ft 140kts
09-Jan-20 21:02 34.348799 -118.495527 321 12679ft 131kts
09-Jan-20 21:03 34.374831 -118.522544 333 14757ft 119kts
09-Jan-20 21:04 34.401192 -118.544562 332 16528ft 132kts
09-Jan-20 21:05 34.439655 -118.575022 333 16514ft 187kts
09-Jan-20 21:06 34.486296 -118.610418 333 16498ft 204kts
09-Jan-20 21:07 34.534917 -118.647198 333 16495ft 207kts
09-Jan-20 21:08 34.582867 -118.683644 332 16499ft 208kts
09-Jan-20 21:09 34.632898 -118.719249 332 16501ft 208kts
09-Jan-20 21:10 34.681234 -118.758443 331 16498ft 209kts
09-Jan-20 21:11 34.729213 -118.798535 330 16496ft 209kts
09-Jan-20 21:12 34.777022 -118.838666 330 16531ft 208kts
09-Jan-20 21:13 34.821539 -118.884254 321 16560ft 213kts
09-Jan-20 21:13 34.855993 -118.929184 321 16575ft 213kts
09-Jan-20 21:15 34.903674 -118.991522 321 16595ft 213kts
09-Jan-20 21:16 34.944349 -119.044818 321 16590ft 212kts
09-Jan-20 21:16 34.977973 -119.088919 321 16587ft 212kts
09-Jan-20 21:18 35.025376 -119.151202 321 16592ft 211kts
09-Jan-20 21:18 35.058971 -119.195423 322 16589ft 211kts
09-Jan-20 21:19 35.099839 -119.249253 322 16586ft 211kts
09-Jan-20 21:20 35.140617 -119.303069 322 16609ft 213kts
09-Jan-20 21:21 35.181866 -119.357598 321 16606ft 213kts
09-Jan-20 21:22 35.223019 -119.412083 321 16607ft 214kts
09-Jan-20 21:23 35.264437 -119.467004 321 16603ft 214kts
09-Jan-20 21:24 35.306132 -119.522408 322 16437ft 214kts
09-Jan-20 21:25 35.346624 -119.576296 322 16436ft 211kts
09-Jan-20 21:26 35.387030 -119.630124 322 16443ft 210kts
09-Jan-20 21:27 35.427128 -119.683654 321 16464ft 209kts
09-Jan-20 21:28 35.466996 -119.736970 322 16478ft 210kts
09-Jan-20 21:29 35.507276 -119.790885 322 16500ft 210kts
09-Jan-20 21:30 35.547805 -119.845226 322 16501ft 210kts
09-Jan-20 21:31 35.587570 -119.898671 322 16497ft 210kts
09-Jan-20 21:32 35.627849 -119.952838 322 16512ft 209kts
09-Jan-20 21:33 35.673211 -119.997705 334 16504ft 201kts
09-Jan-20 21:34 35.722332 -120.034168 334 16497ft 201kts
09-Jan-20 21:35 35.771405 -120.070473 335 16492ft 201kts
09-Jan-20 21:36 35.820736 -120.106980 335 16489ft 201kts
09-Jan-20 21:37 35.869076 -120.142797 335 16487ft 201kts
09-Jan-20 21:38 35.917258 -120.178559 334 16486ft 200kts
09-Jan-20 21:39 35.965185 -120.214197 335 16480ft 200kts
09-Jan-20 21:40 36.013076 -120.249847 335 16488ft 200kts
09-Jan-20 21:41 36.061285 -120.285795 335 16486ft 200kts
09-Jan-20 21:42 36.109004 -120.321411 335 16505ft 199kts
09-Jan-20 21:43 36.157781 -120.357863 334 16506ft 202kts
09-Jan-20 21:44 36.206913 -120.394662 334 16504ft 203kts
09-Jan-20 21:45 36.255943 -120.431434 334 16503ft 203kts
09-Jan-20 21:46 36.304878 -120.468179 334 16502ft 203kts
09-Jan-20 21:47 36.353964 -120.505099 334 16501ft 203kts
09-Jan-20 21:48 36.402734 -120.541819 334 16518ft 203kts
09-Jan-20 21:49 36.451076 -120.578295 334 16517ft 203kts
09-Jan-20 21:50 36.499621 -120.614966 334 16516ft 204kts
09-Jan-20 21:51 36.547965 -120.651537 333 16512ft 204kts
09-Jan-20 21:52 36.596766 -120.688503 333 16511ft 205kts
09-Jan-20 21:53 36.645596 -120.725572 333 16507ft 205kts
09-Jan-20 21:54 36.694356 -120.762628 333 16506ft 205kts
09-Jan-20 21:55 36.743872 -120.798493 334 16505ft 205kts
09-Jan-20 21:56 36.793617 -120.833274 334 16504ft 205kts
09-Jan-20 21:57 36.843308 -120.868039 334 16503ft 205kts
09-Jan-20 21:58 36.893205 -120.903027 334 16502ft 205kts
09-Jan-20 21:59 36.943142 -120.938078 334 16495ft 206kts
09-Jan-20 22:00 36.993212 -120.973256 334 16496ft 206kts
09-Jan-20 22:01 37.043171 -121.008444 334 16504ft 207kts
09-Jan-20 22:02 37.093385 -121.043846 334 16516ft 207kts
09-Jan-20 22:03 37.143162 -121.079011 334 16535ft 207kts
09-Jan-20 22:04 37.193455 -121.114584 334 16533ft 207kts
09-Jan-20 22:05 37.243781 -121.150237 334 16531ft 208kts
09-Jan-20 22:06 37.294196 -121.186007 334 16528ft 208kts
09-Jan-20 22:07 37.344570 -121.221805 334 16529ft 207kts
09-Jan-20 22:08 37.394866 -121.257597 334 16527ft 207kts
09-Jan-20 22:09 37.445235 -121.293503 334 16527ft 208kts
09-Jan-20 22:10 37.495523 -121.329410 334 15376ft 207kts
09-Jan-20 22:11 37.546319 -121.365724 334 13921ft 212kts
09-Jan-20 22:12 37.598775 -121.403298 333 12365ft 220kts
09-Jan-20 22:13 37.652559 -121.441863 333 10829ft 226kts
09-Jan-20 22:14 37.695512 -121.500952 314 10527ft 233kts
09-Jan-20 22:15 37.736514 -121.564343 314 10522ft 232kts
09-Jan-20 22:16 37.777463 -121.627761 314 10524ft 233kts
09-Jan-20 22:17 37.818472 -121.691428 314 10521ft 232kts
09-Jan-20 22:18 37.859383 -121.755063 313 10474ft 232kts
09-Jan-20 22:19 37.900881 -121.819679 313 9685ft 239kts
09-Jan-20 22:20 37.940061 -121.880919 313 8600ft 215kts
09-Jan-20 22:21 37.977887 -121.940058 312 7250ft 219kts
09-Jan-20 22:22 38.016474 -122.000550 312 5739ft 217kts
09-Jan-20 22:23 38.047288 -122.062752 279 4722ft 203kts
09-Jan-20 22:24 38.050885 -122.132048 278 4076ft 191kts
09-Jan-20 22:25 38.054537 -122.198058 278 3347ft 185kts
09-Jan-20 22:26 38.058559 -122.262719 278 2629ft 182kts
09-Jan-20 22:27 38.063167 -122.326833 278 1916ft 182kts
09-Jan-20 22:28 38.069047 -122.390233 280 1491ft 174kts
09-Jan-20 22:29 38.074300 -122.449790 278 1493ft 164kts
09-Jan-20 22:30 38.078927 -122.500431 302 1460ft 115kts
09-Jan-20 22:31 38.099254 -122.524068 329 1313ft 92kts
09-Jan-20 22:32 38.119889 -122.539462 330 628ft 82kts
09-Jan-20 22:33 38.139076 -122.553763 330 32ft 76kts
09-Jan-20 22:34 38.144665 -122.558344 223 6ft 5kts
09-Jan-20 22:35 38.141860 -122.556471 150 6ft 10kts
09-Jan-20 22:36 38.140273 -122.555828 279 6ft 5kts
09-Jan-20 22:37 38.140235 -122.556002 235 6ft 0kts
09-Jan-20 22:38 38.140235 -122.556001 235 6ft 0kts
09-Jan-20 22:39 38.140235 -122.556001 235 6ft 0kts
09-Jan-20 22:40 38.140235 -122.556001 235 6ft 0kts
09-Jan-20 22:41 38.140235 -122.556001 235 6ft 0kts
09-Jan-20 22:42 38.140235 -122.556001 235 6ft 0kts
09-Jan-20 22:43 38.140235 -122.556001 235 6ft 0kts
09-Jan-20 22:44 38.140235 -122.556001 235 6ft 0kts

Navigation Log

Ident Type
Flight plan parsing failed, navigation log unavailable